West Point, Arkansas
Current Conditions -  °F | °C
As of 6:56 PM on Friday 28 Nov 2014 (Local Time) from KSRC Reporting Station
Clear Clear  
Wind Chill: 40°   Ceiling: Unl
Heat Index: 45°   Visibility: 10mi
Dew Point: 38°   Wind: 9mph
Humidity: 76%   Direction: 170°S
Pressure: 30.09"   Gusts: NA
Location:  35.21°N, 91.61°W
Report Text: KSRC 290056Z AUTO 17008KT 10SM CLR 07/03 A3009 RMK AO2 SLP196 T00720033 TSNO
Loading
Personal Weather Stations






























Interactive Weather Map New forecast layout! Learn more

10-Day Weather Forecast

Advertisements
Track Severe Weather on mobile